sensor_id;sensor_type;location;lat;lon;timestamp;temperature;humidity
53653;DHT22;39553;52.954;5.932;2023-02-21T00:01:52;8.80;99.90
53653;DHT22;39553;52.954;5.932;2023-02-21T00:04:36;8.80;99.90
53653;DHT22;39553;52.954;5.932;2023-02-21T00:07:21;8.80;99.90
53653;DHT22;39553;52.954;5.932;2023-02-21T00:10:06;8.80;99.90
53653;DHT22;39553;52.954;5.932;2023-02-21T00:12:51;8.70;99.90
53653;DHT22;39553;52.954;5.932;2023-02-21T00:15:35;8.70;99.90
53653;DHT22;39553;52.954;5.932;2023-02-21T00:18:19;8.70;99.90
53653;DHT22;39553;52.954;5.932;2023-02-21T00:21:04;8.70;99.90
53653;DHT22;39553;52.954;5.932;2023-02-21T00:23:48;8.70;99.90
53653;DHT22;39553;52.954;5.932;2023-02-21T00:26:32;8.70;99.90
53653;DHT22;39553;52.954;5.932;2023-02-21T00:29:16;8.70;99.90
53653;DHT22;39553;52.954;5.932;2023-02-21T00:32:01;8.60;99.90
53653;DHT22;39553;52.954;5.932;2023-02-21T00:34:45;8.70;99.90
53653;DHT22;39553;52.954;5.932;2023-02-21T00:37:29;8.60;99.90
53653;DHT22;39553;52.954;5.932;2023-02-21T00:40:15;8.60;99.90
53653;DHT22;39553;52.954;5.932;2023-02-21T00:42:59;8.60;99.90
53653;DHT22;39553;52.954;5.932;2023-02-21T00:45:44;8.70;99.90
53653;DHT22;39553;52.954;5.932;2023-02-21T00:48:28;8.70;99.90
53653;DHT22;39553;52.954;5.932;2023-02-21T00:51:13;8.70;99.90
53653;DHT22;39553;52.954;5.932;2023-02-21T00:53:57;8.70;99.90
53653;DHT22;39553;52.954;5.932;2023-02-21T00:56:41;8.80;99.90
53653;DHT22;39553;52.954;5.932;2023-02-21T00:59:25;8.80;99.90
53653;DHT22;39553;52.954;5.932;2023-02-21T01:02:10;8.80;99.90
53653;DHT22;39553;52.954;5.932;2023-02-21T01:04:54;8.80;99.90
53653;DHT22;39553;52.954;5.932;2023-02-21T01:07:38;8.80;99.90
53653;DHT22;39553;52.954;5.932;2023-02-21T01:10:23;8.80;99.90
53653;DHT22;39553;52.954;5.932;2023-02-21T01:13:07;8.90;99.90
53653;DHT22;39553;52.954;5.932;2023-02-21T01:15:52;9.00;99.90
53653;DHT22;39553;52.954;5.932;2023-02-21T01:18:36;9.00;99.90
53653;DHT22;39553;52.954;5.932;2023-02-21T01:21:21;9.00;99.90
53653;DHT22;39553;52.954;5.932;2023-02-21T01:24:06;9.00;99.90
53653;DHT22;39553;52.954;5.932;2023-02-21T01:26:51;9.00;99.90
53653;DHT22;39553;52.954;5.932;2023-02-21T01:29:35;9.00;99.90
53653;DHT22;39553;52.954;5.932;2023-02-21T01:32:19;9.10;99.90
53653;DHT22;39553;52.954;5.932;2023-02-21T01:35:04;9.10;99.90
53653;DHT22;39553;52.954;5.932;2023-02-21T01:37:48;9.10;99.90
53653;DHT22;39553;52.954;5.932;2023-02-21T01:40:32;9.10;99.90
53653;DHT22;39553;52.954;5.932;2023-02-21T01:43:24;9.10;99.90
53653;DHT22;39553;52.954;5.932;2023-02-21T01:46:19;9.10;99.90
53653;DHT22;39553;52.954;5.932;2023-02-21T01:49:14;9.10;99.90
53653;DHT22;39553;52.954;5.932;2023-02-21T01:52:01;9.10;99.90
53653;DHT22;39553;52.954;5.932;2023-02-21T01:54:50;9.10;99.90
53653;DHT22;39553;52.954;5.932;2023-02-21T01:57:37;9.00;99.90
53653;DHT22;39553;52.954;5.932;2023-02-21T02:00:23;9.20;99.90
53653;DHT22;39553;52.954;5.932;2023-02-21T02:03:11;9.00;99.90
53653;DHT22;39553;52.954;5.932;2023-02-21T02:06:16;8.90;99.90
53653;DHT22;39553;52.954;5.932;2023-02-21T02:09:18;8.90;99.90
53653;DHT22;39553;52.954;5.932;2023-02-21T02:12:40;8.90;99.90
53653;DHT22;39553;52.954;5.932;2023-02-21T02:15:18;8.90;99.90
53653;DHT22;39553;52.954;5.932;2023-02-21T02:26:29;8.80;99.90
53653;DHT22;39553;52.954;5.932;2023-02-21T02:45:42;8.70;99.90
53653;DHT22;39553;52.954;5.932;2023-02-21T02:50:47;8.70;99.90
53653;DHT22;39553;52.954;5.932;2023-02-21T02:53:18;8.80;99.90
53653;DHT22;39553;52.954;5.932;2023-02-21T02:55:52;8.80;99.90
53653;DHT22;39553;52.954;5.932;2023-02-21T02:58:20;8.80;99.90
53653;DHT22;39553;52.954;5.932;2023-02-21T03:01:18;8.80;99.90
53653;DHT22;39553;52.954;5.932;2023-02-21T03:03:56;8.90;99.90
53653;DHT22;39553;52.954;5.932;2023-02-21T03:06:51;8.90;99.90
53653;DHT22;39553;52.954;5.932;2023-02-21T03:15:04;8.90;99.90
53653;DHT22;39553;52.954;5.932;2023-02-21T03:17:37;8.90;99.90
53653;DHT22;39553;52.954;5.932;2023-02-21T03:20:07;8.90;99.90
53653;DHT22;39553;52.954;5.932;2023-02-21T03:22:34;9.00;99.90
53653;DHT22;39553;52.954;5.932;2023-02-21T03:25:01;9.00;99.90
53653;DHT22;39553;52.954;5.932;2023-02-21T03:27:29;9.00;99.90
53653;DHT22;39553;52.954;5.932;2023-02-21T03:29:59;8.90;99.90
53653;DHT22;39553;52.954;5.932;2023-02-21T03:32:39;8.90;99.90
53653;DHT22;39553;52.954;5.932;2023-02-21T03:35:06;8.90;99.90
53653;DHT22;39553;52.954;5.932;2023-02-21T03:37:39;8.90;99.90
53653;DHT22;39553;52.954;5.932;2023-02-21T03:40:11;8.90;99.90
53653;DHT22;39553;52.954;5.932;2023-02-21T03:42:37;8.90;99.90
53653;DHT22;39553;52.954;5.932;2023-02-21T03:45:06;8.90;99.90
53653;DHT22;39553;52.954;5.932;2023-02-21T03:47:32;9.00;99.90
53653;DHT22;39553;52.954;5.932;2023-02-21T03:49:58;9.00;99.90
53653;DHT22;39553;52.954;5.932;2023-02-21T03:52:23;9.00;99.90
53653;DHT22;39553;52.954;5.932;2023-02-21T03:54:49;9.00;99.90
53653;DHT22;39553;52.954;5.932;2023-02-21T03:57:15;8.90;99.90
53653;DHT22;39553;52.954;5.932;2023-02-21T03:59:41;8.90;99.90
53653;DHT22;39553;52.954;5.932;2023-02-21T04:02:06;9.00;99.90
53653;DHT22;39553;52.954;5.932;2023-02-21T04:04:33;8.90;99.90
53653;DHT22;39553;52.954;5.932;2023-02-21T04:06:59;9.00;99.90
53653;DHT22;39553;52.954;5.932;2023-02-21T04:09:24;9.00;99.90
53653;DHT22;39553;52.954;5.932;2023-02-21T04:11:51;8.90;99.90
53653;DHT22;39553;52.954;5.932;2023-02-21T04:14:17;9.20;99.90
53653;DHT22;39553;52.954;5.932;2023-02-21T04:16:43;8.90;99.90
53653;DHT22;39553;52.954;5.932;2023-02-21T04:19:09;8.90;99.90
53653;DHT22;39553;52.954;5.932;2023-02-21T04:21:34;8.90;99.90
53653;DHT22;39553;52.954;5.932;2023-02-21T04:24:00;8.90;99.90
53653;DHT22;39553;52.954;5.932;2023-02-21T04:26:26;8.90;99.90
53653;DHT22;39553;52.954;5.932;2023-02-21T04:28:55;8.90;99.90
53653;DHT22;39553;52.954;5.932;2023-02-21T04:31:21;8.90;99.90
53653;DHT22;39553;52.954;5.932;2023-02-21T04:33:47;9.00;99.90
53653;DHT22;39553;52.954;5.932;2023-02-21T04:36:14;8.90;99.90
53653;DHT22;39553;52.954;5.932;2023-02-21T04:38:40;8.90;99.90
53653;DHT22;39553;52.954;5.932;2023-02-21T04:41:06;8.90;99.90
53653;DHT22;39553;52.954;5.932;2023-02-21T04:43:32;8.90;99.90
53653;DHT22;39553;52.954;5.932;2023-02-21T04:45:58;8.90;99.90
53653;DHT22;39553;52.954;5.932;2023-02-21T04:48:24;8.90;99.90
53653;DHT22;39553;52.954;5.932;2023-02-21T04:50:50;9.00;99.90
53653;DHT22;39553;52.954;5.932;2023-02-21T04:53:16;8.90;99.90
53653;DHT22;39553;52.954;5.932;2023-02-21T04:55:41;8.90;99.90
53653;DHT22;39553;52.954;5.932;2023-02-21T04:58:07;8.90;99.90
53653;DHT22;39553;52.954;5.932;2023-02-21T05:00:33;8.90;99.90
53653;DHT22;39553;52.954;5.932;2023-02-21T05:02:58;8.90;99.90
53653;DHT22;39553;52.954;5.932;2023-02-21T05:05:25;8.90;99.90
53653;DHT22;39553;52.954;5.932;2023-02-21T05:07:51;8.90;99.90
53653;DHT22;39553;52.954;5.932;2023-02-21T05:10:17;8.90;99.90
53653;DHT22;39553;52.954;5.932;2023-02-21T05:12:43;8.90;99.90
53653;DHT22;39553;52.954;5.932;2023-02-21T05:15:10;8.90;99.90
53653;DHT22;39553;52.954;5.932;2023-02-21T05:17:36;8.90;99.90
53653;DHT22;39553;52.954;5.932;2023-02-21T05:20:03;8.90;99.90
53653;DHT22;39553;52.954;5.932;2023-02-21T05:22:32;8.90;99.90
53653;DHT22;39553;52.954;5.932;2023-02-21T05:24:58;8.90;99.90
53653;DHT22;39553;52.954;5.932;2023-02-21T05:27:24;8.90;99.90
53653;DHT22;39553;52.954;5.932;2023-02-21T05:29:51;8.90;99.90
53653;DHT22;39553;52.954;5.932;2023-02-21T05:32:19;8.90;99.90
53653;DHT22;39553;52.954;5.932;2023-02-21T05:34:46;8.90;99.90
53653;DHT22;39553;52.954;5.932;2023-02-21T05:37:18;9.00;99.90
53653;DHT22;39553;52.954;5.932;2023-02-21T05:39:45;8.90;99.90
53653;DHT22;39553;52.954;5.932;2023-02-21T05:42:11;8.90;99.90
53653;DHT22;39553;52.954;5.932;2023-02-21T05:44:37;8.90;99.90
53653;DHT22;39553;52.954;5.932;2023-02-21T05:47:02;8.90;99.90
53653;DHT22;39553;52.954;5.932;2023-02-21T05:49:28;8.90;99.90
53653;DHT22;39553;52.954;5.932;2023-02-21T05:51:54;8.90;99.90
53653;DHT22;39553;52.954;5.932;2023-02-21T05:54:20;8.90;99.90
53653;DHT22;39553;52.954;5.932;2023-02-21T05:56:48;8.90;99.90
53653;DHT22;39553;52.954;5.932;2023-02-21T05:59:16;8.90;99.90
53653;DHT22;39553;52.954;5.932;2023-02-21T06:01:43;8.90;99.90
53653;DHT22;39553;52.954;5.932;2023-02-21T06:04:09;8.90;99.90
53653;DHT22;39553;52.954;5.932;2023-02-21T06:06:35;8.90;99.90
53653;DHT22;39553;52.954;5.932;2023-02-21T06:09:01;8.80;99.90
53653;DHT22;39553;52.954;5.932;2023-02-21T06:11:32;8.90;99.90
53653;DHT22;39553;52.954;5.932;2023-02-21T06:13:59;8.80;99.90
53653;DHT22;39553;52.954;5.932;2023-02-21T06:16:26;8.80;99.90
53653;DHT22;39553;52.954;5.932;2023-02-21T06:18:55;8.80;99.90
53653;DHT22;39553;52.954;5.932;2023-02-21T06:21:21;8.80;99.90
53653;DHT22;39553;52.954;5.932;2023-02-21T06:23:47;8.90;99.90
53653;DHT22;39553;52.954;5.932;2023-02-21T06:26:14;8.80;99.90
53653;DHT22;39553;52.954;5.932;2023-02-21T06:28:40;8.70;99.90
53653;DHT22;39553;52.954;5.932;2023-02-21T06:31:06;8.70;99.90
53653;DHT22;39553;52.954;5.932;2023-02-21T06:33:32;8.60;99.90
53653;DHT22;39553;52.954;5.932;2023-02-21T06:36:05;8.60;99.90
53653;DHT22;39553;52.954;5.932;2023-02-21T06:38:32;8.60;99.90
53653;DHT22;39553;52.954;5.932;2023-02-21T06:40:58;8.50;99.90
53653;DHT22;39553;52.954;5.932;2023-02-21T06:43:23;8.60;99.90
53653;DHT22;39553;52.954;5.932;2023-02-21T06:45:49;8.60;99.90
53653;DHT22;39553;52.954;5.932;2023-02-21T06:48:16;8.60;99.90
53653;DHT22;39553;52.954;5.932;2023-02-21T06:50:42;8.60;99.90
53653;DHT22;39553;52.954;5.932;2023-02-21T06:53:08;8.60;99.90
53653;DHT22;39553;52.954;5.932;2023-02-21T06:55:33;8.70;99.90
53653;DHT22;39553;52.954;5.932;2023-02-21T06:57:59;8.70;99.90
53653;DHT22;39553;52.954;5.932;2023-02-21T07:00:25;8.70;99.90
53653;DHT22;39553;52.954;5.932;2023-02-21T07:02:53;8.70;99.90
53653;DHT22;39553;52.954;5.932;2023-02-21T07:05:19;9.20;99.90
53653;DHT22;39553;52.954;5.932;2023-02-21T07:07:45;8.80;99.90
53653;DHT22;39553;52.954;5.932;2023-02-21T07:10:11;8.80;99.90
53653;DHT22;39553;52.954;5.932;2023-02-21T07:12:38;8.80;99.90
53653;DHT22;39553;52.954;5.932;2023-02-21T07:15:04;8.90;99.90
53653;DHT22;39553;52.954;5.932;2023-02-21T07:17:30;8.90;99.90
53653;DHT22;39553;52.954;5.932;2023-02-21T07:19:56;8.90;99.90
53653;DHT22;39553;52.954;5.932;2023-02-21T07:22:22;9.00;99.90
53653;DHT22;39553;52.954;5.932;2023-02-21T07:24:52;9.00;99.90
53653;DHT22;39553;52.954;5.932;2023-02-21T07:27:18;9.00;99.90
53653;DHT22;39553;52.954;5.932;2023-02-21T07:29:48;9.00;99.90
53653;DHT22;39553;52.954;5.932;2023-02-21T07:32:15;9.00;99.90
53653;DHT22;39553;52.954;5.932;2023-02-21T07:34:41;9.00;99.90
53653;DHT22;39553;52.954;5.932;2023-02-21T07:37:07;9.10;99.90
53653;DHT22;39553;52.954;5.932;2023-02-21T07:39:33;9.10;99.90
53653;DHT22;39553;52.954;5.932;2023-02-21T07:41:59;9.10;99.90
53653;DHT22;39553;52.954;5.932;2023-02-21T07:44:24;9.10;99.90
53653;DHT22;39553;52.954;5.932;2023-02-21T07:46:50;9.10;99.90
53653;DHT22;39553;52.954;5.932;2023-02-21T07:49:16;9.10;99.90
53653;DHT22;39553;52.954;5.932;2023-02-21T07:51:42;9.10;99.90
53653;DHT22;39553;52.954;5.932;2023-02-21T07:54:07;9.10;99.90
53653;DHT22;39553;52.954;5.932;2023-02-21T07:56:33;9.00;99.90
53653;DHT22;39553;52.954;5.932;2023-02-21T07:58:59;9.00;99.90
53653;DHT22;39553;52.954;5.932;2023-02-21T08:01:25;8.90;99.90
53653;DHT22;39553;52.954;5.932;2023-02-21T08:03:51;8.90;99.90
53653;DHT22;39553;52.954;5.932;2023-02-21T08:06:18;8.70;99.90
53653;DHT22;39553;52.954;5.932;2023-02-21T08:08:44;8.80;99.90
53653;DHT22;39553;52.954;5.932;2023-02-21T08:11:10;8.80;99.90
53653;DHT22;39553;52.954;5.932;2023-02-21T08:13:35;8.80;99.90
53653;DHT22;39553;52.954;5.932;2023-02-21T08:16:01;8.80;99.90
53653;DHT22;39553;52.954;5.932;2023-02-21T08:18:27;8.80;99.90
53653;DHT22;39553;52.954;5.932;2023-02-21T08:20:54;8.70;99.90
53653;DHT22;39553;52.954;5.932;2023-02-21T08:23:21;8.80;99.90
53653;DHT22;39553;52.954;5.932;2023-02-21T08:25:47;8.80;99.90
53653;DHT22;39553;52.954;5.932;2023-02-21T08:28:14;8.80;99.90
53653;DHT22;39553;52.954;5.932;2023-02-21T08:30:40;9.10;99.90
53653;DHT22;39553;52.954;5.932;2023-02-21T08:33:05;9.00;99.90
53653;DHT22;39553;52.954;5.932;2023-02-21T08:35:31;9.00;99.90
53653;DHT22;39553;52.954;5.932;2023-02-21T08:37:57;9.00;99.90
53653;DHT22;39553;52.954;5.932;2023-02-21T08:40:30;9.00;99.90
53653;DHT22;39553;52.954;5.932;2023-02-21T08:42:58;9.10;99.90
53653;DHT22;39553;52.954;5.932;2023-02-21T08:45:25;9.10;99.90
53653;DHT22;39553;52.954;5.932;2023-02-21T08:47:52;9.20;99.90
53653;DHT22;39553;52.954;5.932;2023-02-21T08:50:20;9.20;99.90
53653;DHT22;39553;52.954;5.932;2023-02-21T08:52:49;9.30;99.90
53653;DHT22;39553;52.954;5.932;2023-02-21T08:55:15;9.30;99.90
53653;DHT22;39553;52.954;5.932;2023-02-21T08:57:41;9.40;99.90
53653;DHT22;39553;52.954;5.932;2023-02-21T09:00:08;9.40;99.90
53653;DHT22;39553;52.954;5.932;2023-02-21T09:02:35;9.50;99.90
53653;DHT22;39553;52.954;5.932;2023-02-21T09:07:31;9.50;99.90
53653;DHT22;39553;52.954;5.932;2023-02-21T09:09:58;9.50;99.90
53653;DHT22;39553;52.954;5.932;2023-02-21T09:12:23;9.50;99.90
53653;DHT22;39553;52.954;5.932;2023-02-21T09:14:50;9.60;99.90
53653;DHT22;39553;52.954;5.932;2023-02-21T09:17:16;9.60;99.90
53653;DHT22;39553;52.954;5.932;2023-02-21T09:19:42;9.60;99.90
53653;DHT22;39553;52.954;5.932;2023-02-21T09:22:09;9.60;99.90
53653;DHT22;39553;52.954;5.932;2023-02-21T09:24:35;9.60;99.90
53653;DHT22;39553;52.954;5.932;2023-02-21T09:27:01;9.70;99.90
53653;DHT22;39553;52.954;5.932;2023-02-21T09:29:32;9.70;99.90
53653;DHT22;39553;52.954;5.932;2023-02-21T09:31:59;9.70;99.90
53653;DHT22;39553;52.954;5.932;2023-02-21T09:34:27;9.70;99.90
53653;DHT22;39553;52.954;5.932;2023-02-21T09:36:53;9.70;99.90
53653;DHT22;39553;52.954;5.932;2023-02-21T09:39:22;9.70;99.90
53653;DHT22;39553;52.954;5.932;2023-02-21T09:41:48;9.70;99.90
53653;DHT22;39553;52.954;5.932;2023-02-21T09:44:21;9.70;99.90
53653;DHT22;39553;52.954;5.932;2023-02-21T09:46:57;9.70;99.90
53653;DHT22;39553;52.954;5.932;2023-02-21T09:49:39;9.80;99.90
53653;DHT22;39553;52.954;5.932;2023-02-21T09:52:49;9.70;99.90
53653;DHT22;39553;52.954;5.932;2023-02-21T09:54:57;9.80;99.90
53653;DHT22;39553;52.954;5.932;2023-02-21T09:57:24;9.70;99.90
53653;DHT22;39553;52.954;5.932;2023-02-21T09:59:50;9.70;99.90
53653;DHT22;39553;52.954;5.932;2023-02-21T10:02:46;9.70;99.90
53653;DHT22;39553;52.954;5.932;2023-02-21T10:05:40;9.80;99.90
53653;DHT22;39553;52.954;5.932;2023-02-21T10:16:47;9.80;99.90
53653;DHT22;39553;52.954;5.932;2023-02-21T10:19:20;9.80;99.90
53653;DHT22;39553;52.954;5.932;2023-02-21T10:21:48;9.80;99.90
53653;DHT22;39553;52.954;5.932;2023-02-21T10:24:20;9.90;99.90
53653;DHT22;39553;52.954;5.932;2023-02-21T10:26:56;9.80;99.90
53653;DHT22;39553;52.954;5.932;2023-02-21T10:29:29;9.90;99.90
53653;DHT22;39553;52.954;5.932;2023-02-21T10:32:00;9.90;99.90
53653;DHT22;39553;52.954;5.932;2023-02-21T10:34:30;9.90;99.90
53653;DHT22;39553;52.954;5.932;2023-02-21T10:37:01;9.90;99.90
53653;DHT22;39553;52.954;5.932;2023-02-21T10:39:43;10.70;99.90
53653;DHT22;39553;52.954;5.932;2023-02-21T10:42:30;10.00;99.90
53653;DHT22;39553;52.954;5.932;2023-02-21T10:44:59;9.90;99.90
53653;DHT22;39553;52.954;5.932;2023-02-21T10:50:11;9.90;99.90
53653;DHT22;39553;52.954;5.932;2023-02-21T10:52:50;9.90;99.90
53653;DHT22;39553;52.954;5.932;2023-02-21T10:55:21;9.90;99.90
53653;DHT22;39553;52.954;5.932;2023-02-21T10:57:53;9.90;99.90
53653;DHT22;39553;52.954;5.932;2023-02-21T11:00:42;9.90;99.90
53653;DHT22;39553;52.954;5.932;2023-02-21T11:03:21;9.90;99.90
53653;DHT22;39553;52.954;5.932;2023-02-21T11:05:53;9.90;99.90
53653;DHT22;39553;52.954;5.932;2023-02-21T11:08:51;9.90;99.90
53653;DHT22;39553;52.954;5.932;2023-02-21T11:11:40;10.00;99.90
53653;DHT22;39553;52.954;5.932;2023-02-21T11:14:26;9.90;99.90
53653;DHT22;39553;52.954;5.932;2023-02-21T11:17:12;9.90;99.90
53653;DHT22;39553;52.954;5.932;2023-02-21T11:19:57;9.90;99.90
53653;DHT22;39553;52.954;5.932;2023-02-21T11:22:37;9.90;99.90
53653;DHT22;39553;52.954;5.932;2023-02-21T11:25:07;9.90;99.90
53653;DHT22;39553;52.954;5.932;2023-02-21T11:27:40;9.90;99.90
53653;DHT22;39553;52.954;5.932;2023-02-21T11:30:20;9.90;99.90
53653;DHT22;39553;52.954;5.932;2023-02-21T11:32:52;9.90;99.90
53653;DHT22;39553;52.954;5.932;2023-02-21T11:37:59;9.90;99.90
53653;DHT22;39553;52.954;5.932;2023-02-21T11:43:29;9.90;99.90
53653;DHT22;39553;52.954;5.932;2023-02-21T11:46:43;9.80;99.90
53653;DHT22;39553;52.954;5.932;2023-02-21T11:52:09;9.70;99.90
53653;DHT22;39553;52.954;5.932;2023-02-21T11:54:37;9.60;99.90
53653;DHT22;39553;52.954;5.932;2023-02-21T12:02:53;9.70;99.90
53653;DHT22;39553;52.954;5.932;2023-02-21T12:35:36;9.40;99.90
53653;DHT22;39553;52.954;5.932;2023-02-21T12:44:06;9.20;99.90
53653;DHT22;39553;52.954;5.932;2023-02-21T12:46:54;9.20;99.90
53653;DHT22;39553;52.954;5.932;2023-02-21T12:55:34;9.20;99.90
53653;DHT22;39553;52.954;5.932;2023-02-21T13:00:24;9.20;99.90
53653;DHT22;39553;52.954;5.932;2023-02-21T13:08:42;9.20;99.90
53653;DHT22;39553;52.954;5.932;2023-02-21T13:11:24;9.20;99.90
53653;DHT22;39553;52.954;5.932;2023-02-21T13:13:51;9.20;99.90
53653;DHT22;39553;52.954;5.932;2023-02-21T13:16:18;9.20;99.90
53653;DHT22;39553;52.954;5.932;2023-02-21T13:18:52;9.20;99.90
53653;DHT22;39553;52.954;5.932;2023-02-21T13:30:36;9.30;99.90
53653;DHT22;39553;52.954;5.932;2023-02-21T13:33:03;9.30;99.90
53653;DHT22;39553;52.954;5.932;2023-02-21T13:35:35;9.20;99.90
53653;DHT22;39553;52.954;5.932;2023-02-21T13:38:05;9.20;99.90
53653;DHT22;39553;52.954;5.932;2023-02-21T13:40:40;9.20;99.90
53653;DHT22;39553;52.954;5.932;2023-02-21T13:43:32;9.20;99.90
53653;DHT22;39553;52.954;5.932;2023-02-21T13:46:40;9.20;99.90
53653;DHT22;39553;52.954;5.932;2023-02-21T13:49:47;9.20;99.90
53653;DHT22;39553;52.954;5.932;2023-02-21T13:57:43;9.20;99.90
53653;DHT22;39553;52.954;5.932;2023-02-21T14:08:18;9.20;99.90
53653;DHT22;39553;52.954;5.932;2023-02-21T14:10:47;9.20;99.90
53653;DHT22;39553;52.954;5.932;2023-02-21T14:21:09;9.20;99.90
53653;DHT22;39553;52.954;5.932;2023-02-21T14:23:41;9.30;99.90
53653;DHT22;39553;52.954;5.932;2023-02-21T14:26:48;9.20;99.90
53653;DHT22;39553;52.954;5.932;2023-02-21T14:31:54;9.20;99.90
53653;DHT22;39553;52.954;5.932;2023-02-21T14:34:25;9.20;99.90
53653;DHT22;39553;52.954;5.932;2023-02-21T14:36:53;9.20;99.90
53653;DHT22;39553;52.954;5.932;2023-02-21T14:39:21;9.20;99.90
53653;DHT22;39553;52.954;5.932;2023-02-21T14:42:23;9.20;99.90
53653;DHT22;39553;52.954;5.932;2023-02-21T14:53:03;9.20;99.90
53653;DHT22;39553;52.954;5.932;2023-02-21T14:55:39;9.20;99.90
53653;DHT22;39553;52.954;5.932;2023-02-21T15:03:16;9.10;99.90
53653;DHT22;39553;52.954;5.932;2023-02-21T15:06:07;9.10;99.90
53653;DHT22;39553;52.954;5.932;2023-02-21T15:08:44;9.10;99.90
53653;DHT22;39553;52.954;5.932;2023-02-21T15:11:21;9.00;99.90
53653;DHT22;39553;52.954;5.932;2023-02-21T15:13:47;9.00;99.90
53653;DHT22;39553;52.954;5.932;2023-02-21T15:16:34;9.00;99.90
53653;DHT22;39553;52.954;5.932;2023-02-21T15:19:00;8.90;99.90
53653;DHT22;39553;52.954;5.932;2023-02-21T15:21:27;8.90;99.90
53653;DHT22;39553;52.954;5.932;2023-02-21T15:24:11;8.90;99.90
53653;DHT22;39553;52.954;5.932;2023-02-21T15:26:38;8.90;99.90
53653;DHT22;39553;52.954;5.932;2023-02-21T15:29:09;8.80;99.90
53653;DHT22;39553;52.954;5.932;2023-02-21T15:34:18;8.80;99.90
53653;DHT22;39553;52.954;5.932;2023-02-21T15:36:46;8.80;99.90
53653;DHT22;39553;52.954;5.932;2023-02-21T15:39:23;8.80;99.90
53653;DHT22;39553;52.954;5.932;2023-02-21T15:41:51;8.80;99.90
53653;DHT22;39553;52.954;5.932;2023-02-21T15:44:31;8.70;99.90
53653;DHT22;39553;52.954;5.932;2023-02-21T15:50:06;8.70;99.90
53653;DHT22;39553;52.954;5.932;2023-02-21T16:01:03;8.50;99.90
53653;DHT22;39553;52.954;5.932;2023-02-21T16:03:37;8.50;99.90
53653;DHT22;39553;52.954;5.932;2023-02-21T16:09:40;8.50;99.90
53653;DHT22;39553;52.954;5.932;2023-02-21T16:19:31;8.50;99.90
53653;DHT22;39553;52.954;5.932;2023-02-21T16:22:34;8.50;99.90
53653;DHT22;39553;52.954;5.932;2023-02-21T16:27:38;8.50;99.90
53653;DHT22;39553;52.954;5.932;2023-02-21T16:30:09;8.50;99.90
53653;DHT22;39553;52.954;5.932;2023-02-21T16:32:36;8.50;99.90
53653;DHT22;39553;52.954;5.932;2023-02-21T16:35:04;8.50;99.90
53653;DHT22;39553;52.954;5.932;2023-02-21T16:37:30;8.40;99.90
53653;DHT22;39553;52.954;5.932;2023-02-21T16:39:56;8.40;99.90
53653;DHT22;39553;52.954;5.932;2023-02-21T16:42:22;8.40;99.90
53653;DHT22;39553;52.954;5.932;2023-02-21T16:44:48;8.40;99.90
53653;DHT22;39553;52.954;5.932;2023-02-21T16:47:16;8.40;99.90
53653;DHT22;39553;52.954;5.932;2023-02-21T16:49:43;8.40;99.90
53653;DHT22;39553;52.954;5.932;2023-02-21T16:52:14;8.40;99.90
53653;DHT22;39553;52.954;5.932;2023-02-21T16:54:40;8.30;99.90
53653;DHT22;39553;52.954;5.932;2023-02-21T16:57:06;8.40;99.90
53653;DHT22;39553;52.954;5.932;2023-02-21T16:59:32;8.40;99.90
53653;DHT22;39553;52.954;5.932;2023-02-21T17:01:58;8.30;99.90
53653;DHT22;39553;52.954;5.932;2023-02-21T17:04:26;8.30;99.90
53653;DHT22;39553;52.954;5.932;2023-02-21T17:06:57;8.30;99.90
53653;DHT22;39553;52.954;5.932;2023-02-21T17:09:26;8.50;99.90
53653;DHT22;39553;52.954;5.932;2023-02-21T17:11:53;8.30;99.90
53653;DHT22;39553;52.954;5.932;2023-02-21T17:14:20;8.30;99.90
53653;DHT22;39553;52.954;5.932;2023-02-21T17:16:46;8.30;99.90
53653;DHT22;39553;52.954;5.932;2023-02-21T17:19:14;8.70;99.90
53653;DHT22;39553;52.954;5.932;2023-02-21T17:21:40;8.20;99.90
53653;DHT22;39553;52.954;5.932;2023-02-21T17:24:06;8.30;99.90
53653;DHT22;39553;52.954;5.932;2023-02-21T17:26:32;8.20;99.90
53653;DHT22;39553;52.954;5.932;2023-02-21T17:28:57;8.30;99.90
53653;DHT22;39553;52.954;5.932;2023-02-21T17:31:23;8.20;99.90
53653;DHT22;39553;52.954;5.932;2023-02-21T17:33:49;8.20;99.90
53653;DHT22;39553;52.954;5.932;2023-02-21T17:36:16;8.20;99.90
53653;DHT22;39553;52.954;5.932;2023-02-21T17:38:42;8.20;99.90
53653;DHT22;39553;52.954;5.932;2023-02-21T17:41:07;8.20;99.90
53653;DHT22;39553;52.954;5.932;2023-02-21T17:43:33;8.10;99.90
53653;DHT22;39553;52.954;5.932;2023-02-21T17:45:59;8.20;99.90
53653;DHT22;39553;52.954;5.932;2023-02-21T17:48:25;8.20;99.90
53653;DHT22;39553;52.954;5.932;2023-02-21T17:50:51;8.20;99.90
53653;DHT22;39553;52.954;5.932;2023-02-21T17:53:17;8.20;99.90
53653;DHT22;39553;52.954;5.932;2023-02-21T17:55:42;8.20;99.90
53653;DHT22;39553;52.954;5.932;2023-02-21T17:58:09;8.20;99.90
53653;DHT22;39553;52.954;5.932;2023-02-21T18:00:36;8.10;99.90
53653;DHT22;39553;52.954;5.932;2023-02-21T18:03:04;8.20;99.90
53653;DHT22;39553;52.954;5.932;2023-02-21T18:05:31;8.10;99.90
53653;DHT22;39553;52.954;5.932;2023-02-21T18:07:57;8.20;99.90
53653;DHT22;39553;52.954;5.932;2023-02-21T18:10:25;8.20;99.90
53653;DHT22;39553;52.954;5.932;2023-02-21T18:12:52;8.10;99.90
53653;DHT22;39553;52.954;5.932;2023-02-21T18:15:23;8.20;99.90
53653;DHT22;39553;52.954;5.932;2023-02-21T18:17:49;8.10;99.90
53653;DHT22;39553;52.954;5.932;2023-02-21T18:20:16;8.20;99.90
53653;DHT22;39553;52.954;5.932;2023-02-21T18:22:42;8.10;99.90
53653;DHT22;39553;52.954;5.932;2023-02-21T18:25:09;8.10;99.90
53653;DHT22;39553;52.954;5.932;2023-02-21T18:27:35;8.10;99.90
53653;DHT22;39553;52.954;5.932;2023-02-21T18:30:01;8.10;99.90
53653;DHT22;39553;52.954;5.932;2023-02-21T18:32:28;8.10;99.90
53653;DHT22;39553;52.954;5.932;2023-02-21T18:34:54;8.10;99.90
53653;DHT22;39553;52.954;5.932;2023-02-21T18:37:20;8.00;99.90
53653;DHT22;39553;52.954;5.932;2023-02-21T18:39:50;8.00;99.90
53653;DHT22;39553;52.954;5.932;2023-02-21T18:42:17;8.10;99.90
53653;DHT22;39553;52.954;5.932;2023-02-21T18:44:44;8.10;99.90
53653;DHT22;39553;52.954;5.932;2023-02-21T18:47:10;8.00;99.90
53653;DHT22;39553;52.954;5.932;2023-02-21T18:49:37;8.10;99.90
53653;DHT22;39553;52.954;5.932;2023-02-21T18:52:04;8.00;99.90
53653;DHT22;39553;52.954;5.932;2023-02-21T18:54:32;8.00;99.90
53653;DHT22;39553;52.954;5.932;2023-02-21T18:56:58;8.10;99.90
53653;DHT22;39553;52.954;5.932;2023-02-21T18:59:24;8.00;99.90
53653;DHT22;39553;52.954;5.932;2023-02-21T19:01:52;8.10;99.90
53653;DHT22;39553;52.954;5.932;2023-02-21T19:04:18;8.00;99.90
53653;DHT22;39553;52.954;5.932;2023-02-21T19:06:44;8.00;99.90
53653;DHT22;39553;52.954;5.932;2023-02-21T19:09:10;8.10;99.90
53653;DHT22;39553;52.954;5.932;2023-02-21T19:11:36;8.00;99.90
53653;DHT22;39553;52.954;5.932;2023-02-21T19:14:02;8.10;99.90
53653;DHT22;39553;52.954;5.932;2023-02-21T19:16:30;8.10;99.90
53653;DHT22;39553;52.954;5.932;2023-02-21T19:18:57;8.10;99.90
53653;DHT22;39553;52.954;5.932;2023-02-21T19:21:24;8.10;99.90